createdAt,value
2023-02-26T00:01:47.293Z,-0.60
2023-02-26T00:04:15.883Z,-0.60
2023-02-26T00:06:53.096Z,-0.20
2023-02-26T00:09:26.855Z,-0.60
2023-02-26T00:11:55.989Z,-0.70
2023-02-26T00:14:24.983Z,-0.70
2023-02-26T00:17:07.654Z,-0.70
2023-02-26T00:19:36.260Z,-0.70
2023-02-26T00:22:05.393Z,-0.70
2023-02-26T00:24:35.053Z,-0.70
2023-02-26T00:27:03.440Z,-0.80
2023-02-26T00:29:32.515Z,-0.80
2023-02-26T00:32:01.620Z,-0.80
2023-02-26T00:34:30.771Z,-0.80
2023-02-26T00:37:11.941Z,-0.80
2023-02-26T00:39:49.748Z,-0.80
2023-02-26T00:42:18.822Z,-0.40
2023-02-26T00:44:47.718Z,-0.70
2023-02-26T00:47:26.740Z,-0.70
2023-02-26T00:50:11.267Z,-0.70
2023-02-26T00:52:47.407Z,-0.60
2023-02-26T00:55:17.616Z,-0.70
2023-02-26T00:57:45.973Z,-0.70
2023-02-26T01:00:15.870Z,-0.60
2023-02-26T01:02:45.529Z,-0.70
2023-02-26T01:05:15.205Z,-0.60
2023-02-26T01:07:46.473Z,-0.60
2023-02-26T01:10:17.468Z,-0.50
2023-02-26T01:12:46.227Z,-0.50
2023-02-26T01:15:15.395Z,-0.40
2023-02-26T01:17:50.862Z,-0.40
2023-02-26T01:20:22.508Z,-0.40
2023-02-26T01:22:55.542Z,-0.40
2023-02-26T01:25:30.389Z,-0.40
2023-02-26T01:27:58.954Z,-0.40
2023-02-26T01:30:27.965Z,-0.40
2023-02-26T01:33:04.823Z,-0.30
2023-02-26T01:35:43.694Z,-0.30
2023-02-26T01:38:21.687Z,-0.30
2023-02-26T01:41:18.585Z,-0.30
2023-02-26T01:43:56.385Z,-0.30
2023-02-26T01:46:32.542Z,-0.30
2023-02-26T01:49:02.612Z,-0.30
2023-02-26T01:51:51.604Z,-0.30
2023-02-26T01:54:23.187Z,-0.30
2023-02-26T01:56:56.583Z,-0.20
2023-02-26T01:59:25.430Z,-0.20
2023-02-26T02:01:58.899Z,-0.20
2023-02-26T02:04:28.354Z,-0.20
2023-02-26T02:06:56.873Z,-0.30
2023-02-26T02:09:25.154Z,-0.30
2023-02-26T02:12:14.853Z,-0.30
2023-02-26T02:14:57.746Z,-0.30
2023-02-26T02:17:35.751Z,-0.30
2023-02-26T02:20:56.328Z,-0.30
2023-02-26T02:23:32.028Z,-0.30
2023-02-26T02:26:38.859Z,-0.30
2023-02-26T02:29:44.224Z,-0.30
2023-02-26T02:32:20.728Z,-0.20
2023-02-26T02:34:53.776Z,-0.20
2023-02-26T02:37:25.872Z,-0.20
2023-02-26T02:39:57.816Z,-0.20
2023-02-26T02:42:32.227Z,-0.20
2023-02-26T02:45:06.296Z,-0.20
2023-02-26T02:47:39.725Z,-0.30
2023-02-26T02:50:13.306Z,-0.20
2023-02-26T02:52:47.119Z,-0.20
2023-02-26T02:55:20.670Z,-0.20
2023-02-26T02:57:53.738Z,-0.20
2023-02-26T03:00:25.468Z,-0.20
2023-02-26T03:03:02.325Z,-0.20
2023-02-26T03:05:30.707Z,-0.20
2023-02-26T03:08:04.393Z,-0.20
2023-02-26T03:10:33.755Z,-0.20
2023-02-26T03:13:02.126Z,-0.20
2023-02-26T03:15:39.253Z,-0.20
2023-02-26T03:18:19.952Z,-0.30
2023-02-26T03:20:59.590Z,-0.30
2023-02-26T03:23:36.468Z,-0.30
2023-02-26T03:26:12.059Z,-0.20
2023-02-26T03:28:46.306Z,-0.30
2023-02-26T03:31:19.342Z,-0.70
2023-02-26T03:33:55.758Z,-0.30
2023-02-26T03:36:27.698Z,-0.40
2023-02-26T03:39:04.320Z,-0.30
2023-02-26T03:41:37.779Z,-0.30
2023-02-26T03:44:09.901Z,-0.30
2023-02-26T03:46:44.171Z,-0.30
2023-02-26T03:49:16.885Z,-0.30
2023-02-26T03:51:49.245Z,-0.30
2023-02-26T03:54:22.224Z,-0.30
2023-02-26T03:56:51.011Z,-0.30
2023-02-26T03:59:20.082Z,-0.30
2023-02-26T04:01:54.787Z,-0.30
2023-02-26T04:04:30.021Z,-0.30
2023-02-26T04:06:58.540Z,-0.30
2023-02-26T04:09:26.961Z,-0.20
2023-02-26T04:11:55.961Z,-0.30
2023-02-26T04:14:24.299Z,-0.30
2023-02-26T04:16:52.645Z,-0.30
2023-02-26T04:19:20.896Z,-0.20
2023-02-26T04:21:50.712Z,-0.20
2023-02-26T04:24:19.028Z,-0.10
2023-02-26T04:26:47.392Z,-0.20
2023-02-26T04:29:15.766Z,-0.20
2023-02-26T04:31:44.165Z,-0.20
2023-02-26T04:34:12.755Z,-0.20
2023-02-26T04:36:41.067Z,-0.20
2023-02-26T04:39:11.407Z,-0.20
2023-02-26T04:41:39.783Z,-0.20
2023-02-26T04:44:08.607Z,-0.20
2023-02-26T04:46:36.906Z,-0.20
2023-02-26T04:49:05.526Z,-0.20
2023-02-26T04:51:33.865Z,-0.20
2023-02-26T04:54:02.351Z,-0.10
2023-02-26T04:56:33.769Z,-0.10
2023-02-26T04:59:02.086Z,-0.10
2023-02-26T05:01:30.230Z,-0.20
2023-02-26T05:03:58.294Z,-0.20
2023-02-26T05:06:26.926Z,-0.20
2023-02-26T05:08:55.178Z,-0.10
2023-02-26T05:11:23.210Z,-0.10
2023-02-26T05:13:52.584Z,-0.20
2023-02-26T05:16:20.793Z,-0.20
2023-02-26T05:18:48.841Z,-0.10
2023-02-26T05:21:16.900Z,-0.20
2023-02-26T05:23:44.954Z,-0.10
2023-02-26T05:26:12.970Z,-0.20
2023-02-26T05:28:40.997Z,0.00
2023-02-26T05:31:10.525Z,0.00
2023-02-26T05:33:38.571Z,0.00
2023-02-26T05:36:08.022Z,0.00
2023-02-26T05:38:36.434Z,0.00
2023-02-26T05:41:04.823Z,0.00
2023-02-26T05:43:33.529Z,0.00
2023-02-26T05:46:01.596Z,0.00
2023-02-26T05:48:31.135Z,0.00
2023-02-26T05:50:59.109Z,-0.10
2023-02-26T05:53:27.295Z,0.00
2023-02-26T05:55:55.865Z,0.00
2023-02-26T05:58:23.903Z,0.00
2023-02-26T06:00:51.960Z,0.00
2023-02-26T06:03:20.035Z,0.00
2023-02-26T06:05:49.540Z,0.00
2023-02-26T06:08:17.561Z,0.00
2023-02-26T06:10:45.624Z,0.00
2023-02-26T06:13:13.717Z,0.10
2023-02-26T06:15:41.710Z,0.10
2023-02-26T06:18:09.727Z,0.10
2023-02-26T06:20:38.164Z,0.10
2023-02-26T06:23:07.679Z,0.10
2023-02-26T06:25:35.722Z,0.10
2023-02-26T06:28:03.857Z,0.10
2023-02-26T06:30:31.931Z,0.10
2023-02-26T06:32:59.997Z,0.10
2023-02-26T06:35:29.944Z,0.10
2023-02-26T06:37:58.056Z,0.10
2023-02-26T06:40:27.570Z,0.20
2023-02-26T06:42:55.633Z,0.20
2023-02-26T06:45:25.108Z,0.20
2023-02-26T06:47:53.138Z,0.30
2023-02-26T06:50:21.671Z,0.30
2023-02-26T06:52:49.692Z,0.30
2023-02-26T06:55:17.843Z,0.40
2023-02-26T06:57:47.136Z,0.50
2023-02-26T07:00:16.027Z,0.60
2023-02-26T07:02:44.076Z,0.60
2023-02-26T07:05:12.193Z,0.60
2023-02-26T07:07:40.489Z,0.70
2023-02-26T07:10:09.552Z,1.00
2023-02-26T07:12:38.243Z,2.00
2023-02-26T07:15:08.906Z,2.80
2023-02-26T07:17:36.989Z,3.40
2023-02-26T07:20:09.972Z,3.30
2023-02-26T07:22:38.875Z,2.80
2023-02-26T07:25:08.060Z,2.30
2023-02-26T07:27:36.061Z,2.00
2023-02-26T07:30:05.835Z,1.50
2023-02-26T07:32:35.472Z,1.30
2023-02-26T07:35:04.208Z,0.70
2023-02-26T07:37:32.572Z,0.60
2023-02-26T07:40:00.787Z,0.70
2023-02-26T07:42:28.909Z,0.80
2023-02-26T07:44:56.884Z,0.90
2023-02-26T07:47:24.938Z,0.90
2023-02-26T07:49:54.295Z,1.00
2023-02-26T07:52:22.633Z,0.90
2023-02-26T07:54:50.763Z,0.60
2023-02-26T07:57:18.905Z,0.70
2023-02-26T07:59:47.023Z,0.50
2023-02-26T08:02:15.366Z,0.40
2023-02-26T08:04:43.718Z,0.40
2023-02-26T08:07:13.138Z,0.50
2023-02-26T08:09:41.176Z,0.60
2023-02-26T08:12:09.295Z,0.60
2023-02-26T08:14:37.521Z,0.70
2023-02-26T08:17:05.599Z,0.60
2023-02-26T08:19:33.673Z,0.60
2023-02-26T08:22:01.795Z,0.60
2023-02-26T08:24:31.169Z,0.70
2023-02-26T08:26:59.264Z,0.50
2023-02-26T08:29:27.580Z,0.50
2023-02-26T08:31:55.765Z,0.50
2023-02-26T08:34:23.952Z,0.50
2023-02-26T08:36:52.117Z,0.70
2023-02-26T08:39:20.220Z,0.50
2023-02-26T08:41:49.627Z,0.50
2023-02-26T08:44:17.656Z,0.60
2023-02-26T08:46:45.733Z,0.70
2023-02-26T08:49:13.774Z,0.80
2023-02-26T08:51:41.892Z,1.00
2023-02-26T08:54:10.263Z,1.00
2023-02-26T08:56:38.358Z,1.00
2023-02-26T08:59:10.162Z,1.00
2023-02-26T09:01:38.352Z,1.10
2023-02-26T09:04:06.313Z,0.90
2023-02-26T09:06:34.614Z,0.90
2023-02-26T09:09:02.760Z,0.90
2023-02-26T09:11:32.471Z,0.90
2023-02-26T09:14:02.239Z,0.90
2023-02-26T09:16:35.315Z,0.90
2023-02-26T09:19:03.614Z,0.80
2023-02-26T09:21:31.685Z,0.80
2023-02-26T09:23:59.731Z,1.00
2023-02-26T09:26:28.187Z,0.80
2023-02-26T09:28:56.408Z,1.00
2023-02-26T09:31:24.566Z,1.00
2023-02-26T09:33:54.080Z,1.00
2023-02-26T09:36:22.159Z,1.00
2023-02-26T09:38:50.250Z,1.00
2023-02-26T09:41:23.296Z,1.10
2023-02-26T09:44:08.528Z,1.20
2023-02-26T09:46:43.382Z,1.20
2023-02-26T09:49:23.246Z,1.10
2023-02-26T09:51:55.539Z,1.20
2023-02-26T09:54:26.559Z,1.20
2023-02-26T09:56:57.887Z,2.40
2023-02-26T09:59:27.049Z,1.30
2023-02-26T10:02:00.724Z,1.40
2023-02-26T10:04:47.903Z,1.30
2023-02-26T10:07:26.244Z,1.20
2023-02-26T10:10:15.004Z,1.20
2023-02-26T10:12:45.238Z,1.40
2023-02-26T10:15:17.495Z,1.40
2023-02-26T10:17:55.831Z,1.50
2023-02-26T10:20:30.391Z,1.70
2023-02-26T10:23:04.415Z,1.50
2023-02-26T10:25:37.032Z,1.50
2023-02-26T10:28:21.003Z,1.60
2023-02-26T10:30:54.975Z,1.70
2023-02-26T10:33:34.833Z,1.90
2023-02-26T10:36:10.322Z,2.10
2023-02-26T10:38:38.677Z,2.40
2023-02-26T10:41:11.653Z,2.50
2023-02-26T10:43:42.843Z,2.60
2023-02-26T10:46:24.146Z,2.80
2023-02-26T10:49:04.077Z,2.80
2023-02-26T10:51:37.275Z,2.70
2023-02-26T10:54:23.714Z,2.80
2023-02-26T10:56:51.817Z,2.80
2023-02-26T10:59:19.936Z,2.80
2023-02-26T11:01:49.327Z,2.90
2023-02-26T11:04:20.007Z,3.00
2023-02-26T11:06:53.646Z,3.00
2023-02-26T11:09:25.615Z,2.90
2023-02-26T11:11:55.861Z,3.00
2023-02-26T11:14:26.823Z,3.10
2023-02-26T11:16:58.622Z,3.30
2023-02-26T11:19:30.143Z,3.30
2023-02-26T11:22:02.639Z,3.30
2023-02-26T11:24:35.438Z,3.20
2023-02-26T11:27:06.290Z,3.20
2023-02-26T11:29:39.563Z,3.20
2023-02-26T11:32:08.782Z,3.20
2023-02-26T11:34:38.495Z,3.30
2023-02-26T11:37:07.952Z,3.40
2023-02-26T11:39:40.583Z,3.60
2023-02-26T11:42:12.003Z,3.70
2023-02-26T11:44:42.964Z,3.80
2023-02-26T11:47:16.576Z,3.90
2023-02-26T11:49:46.899Z,3.80
2023-02-26T11:52:23.644Z,3.70
2023-02-26T11:54:56.698Z,3.60
2023-02-26T11:57:27.312Z,3.40
2023-02-26T11:59:56.796Z,3.50
2023-02-26T12:02:27.878Z,3.30
2023-02-26T12:05:00.714Z,3.20
2023-02-26T12:07:32.042Z,3.20
2023-02-26T12:10:00.225Z,3.20
2023-02-26T12:12:48.153Z,3.40
2023-02-26T12:15:28.550Z,3.40
2023-02-26T12:18:27.029Z,3.60
2023-02-26T12:21:07.149Z,3.60
2023-02-26T12:24:02.739Z,3.60
2023-02-26T12:26:34.963Z,3.50
2023-02-26T12:29:36.527Z,3.30
2023-02-26T12:32:31.356Z,3.30
2023-02-26T12:35:45.103Z,2.90
2023-02-26T12:38:24.145Z,3.80
2023-02-26T12:41:08.791Z,3.10
2023-02-26T12:43:45.981Z,3.40
2023-02-26T12:46:26.336Z,3.60
2023-02-26T12:49:21.908Z,3.90
2023-02-26T12:52:06.671Z,3.90
2023-02-26T12:54:52.567Z,3.70
2023-02-26T12:57:55.668Z,3.70
2023-02-26T13:00:44.838Z,3.60
2023-02-26T13:03:51.649Z,3.40
2023-02-26T13:06:41.457Z,3.20
2023-02-26T13:09:24.567Z,3.40
2023-02-26T13:12:05.061Z,3.30
2023-02-26T13:14:44.780Z,3.40
2023-02-26T13:17:23.373Z,3.40
2023-02-26T13:19:56.241Z,3.50
2023-02-26T13:22:28.176Z,3.70
2023-02-26T13:25:00.702Z,3.80
2023-02-26T13:27:33.997Z,4.10
2023-02-26T13:30:21.514Z,3.80
2023-02-26T13:32:52.444Z,3.70
2023-02-26T13:35:26.887Z,3.40
2023-02-26T13:37:57.765Z,3.40
2023-02-26T13:40:45.184Z,3.30
2023-02-26T13:43:27.441Z,3.20
2023-02-26T13:46:06.007Z,3.10
2023-02-26T13:48:43.251Z,3.00
2023-02-26T13:51:17.152Z,3.00
2023-02-26T13:53:53.895Z,3.00
2023-02-26T13:56:54.646Z,3.10
2023-02-26T13:59:32.421Z,3.30
2023-02-26T14:02:25.587Z,3.60
2023-02-26T14:04:55.554Z,3.70
2023-02-26T14:07:48.897Z,3.80
2023-02-26T14:10:24.039Z,3.80
2023-02-26T14:13:08.963Z,3.80
2023-02-26T14:15:50.864Z,3.70
2023-02-26T14:18:32.106Z,3.70
2023-02-26T14:21:43.264Z,3.80
2023-02-26T14:24:21.635Z,3.70
2023-02-26T14:26:52.161Z,3.60
2023-02-26T14:29:27.306Z,3.60
2023-02-26T14:32:06.076Z,3.50
2023-02-26T14:34:49.141Z,3.50
2023-02-26T14:37:21.762Z,3.50
2023-02-26T14:39:54.958Z,3.50
2023-02-26T14:42:34.664Z,3.60
2023-02-26T14:45:11.908Z,3.50
2023-02-26T14:47:40.908Z,3.50
2023-02-26T14:50:16.326Z,3.60
2023-02-26T14:53:20.243Z,3.70
2023-02-26T14:55:57.845Z,3.80
2023-02-26T14:58:36.079Z,3.70
2023-02-26T15:01:21.407Z,3.70
2023-02-26T15:04:08.083Z,3.70
2023-02-26T15:06:58.242Z,3.60
2023-02-26T15:09:34.092Z,3.40
2023-02-26T15:12:19.924Z,3.30
2023-02-26T15:15:27.084Z,3.30
2023-02-26T15:18:16.012Z,3.10
2023-02-26T15:20:55.168Z,2.90
2023-02-26T15:23:37.389Z,2.90
2023-02-26T15:26:07.328Z,2.80
2023-02-26T15:28:38.379Z,2.70
2023-02-26T15:31:09.138Z,2.70
2023-02-26T15:33:40.067Z,2.60
2023-02-26T15:36:10.934Z,2.60
2023-02-26T15:38:47.400Z,2.60
2023-02-26T15:41:16.722Z,2.60
2023-02-26T15:43:50.533Z,2.70
2023-02-26T15:46:21.006Z,2.70
2023-02-26T15:48:49.453Z,2.70
2023-02-26T15:51:20.992Z,2.80
2023-02-26T15:53:53.764Z,2.80
2023-02-26T15:56:26.182Z,2.80
2023-02-26T15:58:57.943Z,2.80
2023-02-26T16:01:28.930Z,2.90
2023-02-26T16:04:00.340Z,3.00
2023-02-26T16:06:32.516Z,3.00
2023-02-26T16:09:03.220Z,2.90
2023-02-26T16:11:36.363Z,2.80
2023-02-26T16:14:06.188Z,2.70
2023-02-26T16:16:43.036Z,2.50
2023-02-26T16:19:15.937Z,2.40
2023-02-26T16:21:45.191Z,2.30
2023-02-26T16:24:19.730Z,2.30
2023-02-26T16:26:53.767Z,2.30
2023-02-26T16:29:25.739Z,2.20
2023-02-26T16:31:57.216Z,2.20
2023-02-26T16:34:36.244Z,2.20
2023-02-26T16:37:20.140Z,2.20
2023-02-26T16:39:54.440Z,2.10
2023-02-26T16:42:33.042Z,2.10
2023-02-26T16:45:17.888Z,2.10
2023-02-26T16:47:48.696Z,2.20
2023-02-26T16:50:19.811Z,2.20
2023-02-26T16:52:54.461Z,2.20
2023-02-26T16:55:27.650Z,2.30
2023-02-26T16:57:57.766Z,2.20
2023-02-26T17:00:31.427Z,2.10
2023-02-26T17:03:10.477Z,2.00
2023-02-26T17:05:42.325Z,1.80
2023-02-26T17:08:16.656Z,1.90
2023-02-26T17:10:51.740Z,1.80
2023-02-26T17:13:25.151Z,2.00
2023-02-26T17:15:54.505Z,2.00
2023-02-26T17:18:22.964Z,2.00
2023-02-26T17:20:51.428Z,2.00
2023-02-26T17:23:22.516Z,1.80
2023-02-26T17:25:56.259Z,1.70
2023-02-26T17:28:26.219Z,1.60
2023-02-26T17:30:56.108Z,1.70
2023-02-26T17:33:24.629Z,1.80
2023-02-26T17:35:54.217Z,1.90
2023-02-26T17:38:22.843Z,1.80
2023-02-26T17:40:54.435Z,1.80
2023-02-26T17:43:22.952Z,1.80
2023-02-26T17:45:51.801Z,1.80
2023-02-26T17:48:20.349Z,1.80
2023-02-26T17:50:52.168Z,1.90
2023-02-26T17:53:22.215Z,1.90
2023-02-26T17:55:54.288Z,2.00
2023-02-26T17:58:28.299Z,1.90
2023-02-26T18:00:56.860Z,1.80
2023-02-26T18:03:25.579Z,1.80
2023-02-26T18:05:55.855Z,1.70
2023-02-26T18:08:26.695Z,1.70
2023-02-26T18:10:57.216Z,1.70
2023-02-26T18:13:25.894Z,1.60
2023-02-26T18:15:56.657Z,1.50
2023-02-26T18:18:26.011Z,1.50
2023-02-26T18:20:55.342Z,1.40
2023-02-26T18:23:23.821Z,1.20
2023-02-26T18:25:54.203Z,1.20
2023-02-26T18:28:26.237Z,1.10
2023-02-26T18:30:55.629Z,1.10
2023-02-26T18:33:24.660Z,1.10
2023-02-26T18:35:56.056Z,1.00
2023-02-26T18:38:26.281Z,0.90
2023-02-26T18:40:55.779Z,0.80
2023-02-26T18:43:25.683Z,0.80
2023-02-26T18:45:54.181Z,0.70
2023-02-26T18:48:22.811Z,0.80
2023-02-26T18:50:51.153Z,0.80
2023-02-26T18:53:23.610Z,0.80
2023-02-26T18:55:53.174Z,0.80
2023-02-26T18:58:22.157Z,0.70
2023-02-26T19:00:52.108Z,0.70
2023-02-26T19:03:20.529Z,0.70
2023-02-26T19:05:57.434Z,0.70
2023-02-26T19:08:25.709Z,0.70
2023-02-26T19:10:54.264Z,0.60
2023-02-26T19:13:24.032Z,0.60
2023-02-26T19:15:53.895Z,0.80
2023-02-26T19:18:22.353Z,0.60
2023-02-26T19:20:50.701Z,0.50
2023-02-26T19:23:19.698Z,0.50
2023-02-26T19:25:48.061Z,0.50
2023-02-26T19:28:16.452Z,0.40
2023-02-26T19:30:44.857Z,0.40
2023-02-26T19:33:14.581Z,0.40
2023-02-26T19:38:24.201Z,0.30
2023-02-26T19:40:52.917Z,0.30
2023-02-26T19:43:21.018Z,0.10
2023-02-26T19:45:49.118Z,0.20
2023-02-26T19:48:17.287Z,1.00
2023-02-26T19:50:45.830Z,0.30
2023-02-26T19:53:16.380Z,0.30
2023-02-26T19:55:45.924Z,0.20
2023-02-26T19:58:14.121Z,0.20
2023-02-26T20:00:42.213Z,0.10
2023-02-26T20:03:10.331Z,0.10
2023-02-26T20:05:38.663Z,0.10
2023-02-26T20:08:07.487Z,0.00
2023-02-26T20:10:35.712Z,0.00
2023-02-26T20:13:05.300Z,0.10
2023-02-26T20:15:33.427Z,0.00
2023-02-26T20:18:01.524Z,0.00
2023-02-26T20:20:29.769Z,0.10
2023-02-26T20:22:57.968Z,-0.10
2023-02-26T20:25:26.134Z,-0.30
2023-02-26T20:27:54.238Z,-0.30
2023-02-26T20:30:23.763Z,-0.50
2023-02-26T20:32:51.961Z,-0.60
2023-02-26T20:35:20.131Z,-0.60
2023-02-26T20:37:49.011Z,-0.70
2023-02-26T20:40:17.102Z,-0.80
2023-02-26T20:42:45.210Z,-0.70
2023-02-26T20:45:13.936Z,-0.70
2023-02-26T20:47:43.343Z,-0.80
2023-02-26T20:50:13.002Z,-0.90
2023-02-26T20:52:41.059Z,-0.80
2023-02-26T20:55:09.987Z,-0.80
2023-02-26T20:57:38.033Z,-0.90
2023-02-26T21:00:11.028Z,-0.90
2023-02-26T21:02:39.352Z,-0.90
2023-02-26T21:05:10.197Z,-0.70
2023-02-26T21:07:39.284Z,-0.90
2023-02-26T21:10:08.057Z,-0.90
2023-02-26T21:12:36.281Z,-0.80
2023-02-26T21:15:05.122Z,-0.80
2023-02-26T21:17:33.949Z,-0.80
2023-02-26T21:20:02.009Z,-0.80
2023-02-26T21:22:31.452Z,-0.90
2023-02-26T21:24:59.522Z,-0.90
2023-02-26T21:27:27.752Z,-0.90
2023-02-26T21:29:56.077Z,-0.90
2023-02-26T21:32:24.208Z,-0.90
2023-02-26T21:34:52.280Z,-0.90
2023-02-26T21:37:20.370Z,-0.80
2023-02-26T21:39:49.792Z,-0.80
2023-02-26T21:42:17.959Z,-0.70
2023-02-26T21:44:47.477Z,-0.60
2023-02-26T21:47:16.715Z,-0.50
2023-02-26T21:49:45.090Z,-0.50
2023-02-26T21:52:13.522Z,-0.40
2023-02-26T21:54:41.734Z,-0.40
2023-02-26T21:57:11.625Z,-0.40
2023-02-26T21:59:39.650Z,-0.50
2023-02-26T22:02:08.072Z,-0.60
2023-02-26T22:04:36.563Z,-0.70
2023-02-26T22:07:04.687Z,-0.80
2023-02-26T22:09:32.792Z,-0.90
2023-02-26T22:12:00.887Z,-0.90
2023-02-26T22:14:30.648Z,-1.00
2023-02-26T22:16:58.741Z,-1.10
2023-02-26T22:19:27.143Z,-1.10
2023-02-26T22:21:55.262Z,-1.20
2023-02-26T22:24:23.337Z,-1.20
2023-02-26T22:26:51.510Z,-1.30
2023-02-26T22:29:19.802Z,-1.30
2023-02-26T22:31:49.417Z,-1.40
2023-02-26T22:34:17.663Z,-1.40
2023-02-26T22:36:45.736Z,-1.40
2023-02-26T22:39:14.452Z,-1.50
2023-02-26T22:41:42.566Z,-1.50
2023-02-26T22:44:10.778Z,-1.50
2023-02-26T22:46:38.888Z,-1.50
2023-02-26T22:49:08.643Z,-1.50
2023-02-26T22:51:36.997Z,-1.60
2023-02-26T22:54:05.304Z,-1.60
2023-02-26T22:56:33.353Z,-1.60
2023-02-26T22:59:01.473Z,-1.50
2023-02-26T23:01:30.398Z,-1.60
2023-02-26T23:03:59.363Z,-1.50
2023-02-26T23:06:29.221Z,-1.50
2023-02-26T23:08:57.618Z,-1.50
2023-02-26T23:11:26.433Z,-1.50
2023-02-26T23:13:55.373Z,-1.50
2023-02-26T23:16:24.029Z,-1.50
2023-02-26T23:18:52.646Z,-1.40
2023-02-26T23:21:21.076Z,-1.40
2023-02-26T23:23:51.138Z,-1.40
2023-02-26T23:26:19.929Z,-1.40
2023-02-26T23:28:48.681Z,-1.40
2023-02-26T23:31:17.279Z,-1.50
2023-02-26T23:33:46.238Z,-1.50
2023-02-26T23:36:15.104Z,-1.50
2023-02-26T23:38:43.859Z,-1.60
2023-02-26T23:41:13.895Z,-1.60
2023-02-26T23:43:42.536Z,-1.60
2023-02-26T23:46:12.153Z,-1.60
2023-02-26T23:48:40.806Z,-1.60
2023-02-26T23:51:09.338Z,-1.60
2023-02-26T23:53:37.771Z,-1.60
2023-02-26T23:56:06.858Z,-1.60
2023-02-26T23:58:36.882Z,-1.70
